• Join FlightAware (Why Join?)
  • Login
  • US Flag 
12:51AM EDT


 

Airport Tracker/Info


-or-


 

Live Flight TrackerFlight Track Log ✈ SWA1521 ✈ 26-Apr-2013 ✈ KSMF - KLAX

Flight Track Log - Related Links

Times and Time Zones

All times are in EDT time to prevent confusion due to time zone crossing. See the SWA1521 flight status page for this flight to view local times or setup timezone preferences in your user account.

Time Position Orientation Groundspeed Altitude Reporting Facility
EDT Latitude Longitude Course Direction KTS MPH feet Rate Location/Type
11:50PM 38.6181 -121.5194 109° East 240 276 4,500  Level Oakland Center
11:51PM 38.5756 -121.4253 120° Southeast 278 320 9,600 4,080 Climbing Oakland Center
11:52PM 38.5325 -121.3311 120° Southeast 309 356 12,900 3,420 Climbing Oakland Center
11:53PM 38.4831 -121.2231 120° Southeast 350 403 16,600 3,540 Climbing Oakland Center
11:54PM 38.4286 -121.1047 120° Southeast 371 427 20,100 3,120 Climbing Oakland Center
11:55PM 38.3072 -120.9824 109° East  Level FlightAware Approximate
11:55PM 38.3736 -120.9850 120° Southeast 389 448 23,000  Level Oakland Center
11:56PM 38.3153 -120.8594 121° Southeast 412 474 25,500 2,400 Climbing Oakland Center
11:57PM 38.2531 -120.7275 121° Southeast 431 496 28,000 2,340 Climbing Oakland Center
11:58PM 38.1658 -120.6161 135° Southeast 453 521 30,300 2,400 Climbing Oakland Center
11:59PM 38.0667 -120.5181 142° Southeast 452 520 33,000 2,220 Climbing Oakland Center
12:00AM 37.9692 -120.4222 142° Southeast 444 511 34,900 1,860 Climbing Oakland Center
12:01AM 37.8694 -120.3272 143° Southeast 448 516 36,800 1,020 Climbing Oakland Center
12:02AM 37.7706 -120.2306 142° Southeast 450 518 37,000 60 Climbing Oakland Center
12:03AM 37.6714 -120.1361 143° Southeast 445 512 37,000  Level Oakland Center
12:04AM 37.5689 -120.0450 145° Southeast 452 520 37,000  Level Oakland Center
12:05AM 37.4714 -119.9472 141° Southeast 446 513 37,000  Level Oakland Center
12:06AM 37.3531 -119.8358 143° Southeast 443 510 37,000  Level Oakland Center
12:07AM 37.2667 -119.7514 142° Southeast 443 510 37,000  Level Oakland Center
12:08AM 37.1689 -119.6572 142° Southeast 443 510 37,000  Level Oakland Center
12:09AM 37.0572 -119.5967 157° South 447 514 37,000  Level Oakland Center
12:10AM 36.9325 -119.5986 181° South 448 516 37,000  Level Oakland Center
12:11AM 36.8064 -119.5975 180° South 456 525 37,000  Level Oakland Center
12:12AM 36.6794 -119.6011 181° South 455 524 37,000  Level Oakland Center
12:13AM 36.5325 -119.6050 181° South 442 509 37,000 -240 Level Oakland Center
12:14AM 36.4075 -119.6053 180° South 446 513 36,600 -720 Descending Oakland Center
12:15AM 36.2839 -119.6067 181° South 444 511 35,600 -1,020 Descending Oakland Center
12:16AM 36.1583 -119.6097 181° South 449 517 34,600 -960 Descending Oakland Center
12:17AM 36.0331 -119.6111 181° South 449 517 33,700 -840 Descending Oakland Center
12:18AM 35.9100 -119.6189 183° South 441 507 33,000 -360 Descending Oakland Center
12:19AM 35.7872 -119.6225 181° South 440 506 33,000  Level Oakland Center
12:20AM 35.6644 -119.6261 181° South 438 504 33,000  Level Oakland Center
12:21AM 35.5483 -119.5986 169° South 420 483 33,000  Level Oakland Center
12:22AM 35.4369 -119.5392 156° South 428 493 33,000  Level Oakland Center
12:23AM 35.3250 -119.4806 157° South 432 497 33,000  Level Oakland Center
12:24AM 35.2128 -119.4217 157° South 434 499 33,000 -540 Level Oakland Center
12:25AM 35.1008 -119.3644 157° South 435 501 32,000 -1,680 Descending Oakland Center
12:26AM 34.9894 -119.3072 157° South 433 498 29,600 -2,280 Descending Oakland Center
12:27AM 34.8839 -119.2506 156° South 420 483 27,400 -2,160 Descending Oakland Center
12:28AM 34.7794 -119.1972 157° South 411 473 25,300 -2,340 Descending Oakland Center
12:29AM 34.6592 -119.1347 157° South 397 457 22,800 -2,160 Descending Oakland Center
12:31AM 34.5575 -119.0472 145° Southeast 373 429 20,600 -1,860 Descending Los Angeles Center
12:32AM 34.4753 -118.9803 146° Southeast 356 410 18,700 -1,860 Descending Los Angeles Center
12:33AM 34.3958 -118.9139 145° Southeast 348 400 16,900 -1,860 Descending Los Angeles Center
12:34AM 34.3092 -118.8628 154° Southeast 348 400 14,900 -1,920 Descending Los Angeles Center
12:35AM 34.2194 -118.8308 164° South 336 387 13,000 -1,440 Descending Los Angeles Center
12:36AM 34.1319 -118.7994 163° South 329 379 12,000 -1,140 Descending Los Angeles Center
12:37AM 34.0433 -118.7486 155° Southeast 317 365 10,700 -1,020 Descending Los Angeles Center
12:38AM 34.0306 -118.6728 101° East 281 323 10,000 -1,440 Descending Los Angeles Center
12:39AM 34.0197 -118.5561 96° East 286 329 7,800 -1,500 Descending Los Angeles Center
12:40AM 34.0106 -118.4636 97° East 278 320 7,000 -840 Descending Los Angeles Center
12:41AM 34.0178 -118.3828 84° East 257 296 6,100 -900 Descending Los Angeles Center
12:42AM 34.0261 -118.2983 83° East 254 292 5,200 -780 Descending Los Angeles Center
12:43AM 34.0181 -118.2317 98° East 224 258 4,600 -900 Descending Los Angeles Center
12:44AM 33.9681 -118.2522 199° South 199 229 3,400 -1,320 Descending Los Angeles Center
12:45AM 33.9614 -118.3078 262° West 177 204 2,000 -1,260 Descending Los Angeles Center
12:46AM 33.9575 -118.3586 265° West 165 190 900 -900 Descending Los Angeles Center
12:47AM 33.9522 -118.4008 261° West 144 166 200 -720 Descending Los Angeles Center
12:49AM 33.9425 -118.4081 228° Southwest  Level Estimated